Time;durP1;ratioP1;P1;durP2;ratioP2;P2;SDS_P1;SDS_P2;PMS_P1;PMS_P2;Temp;Humidity;BMP_temperature;BMP_pressure;BME280_temperature;BME280_humidity;BME280_pressure;Samples;Min_cycle;Max_cycle;Signal;HPM_P1;HPM_P2
2023/06/16 00:01:06;;;;;;;4.75;4.35;;;;;;;18.13;46.04;97276.03;4938447;28;20160;-78
2023/06/16 00:03:33;;;;;;;4.82;4.30;;;;;;;18.02;46.35;97272.75;4917505;28;20224;-78
2023/06/16 00:06:14;;;;;;;5.07;4.43;;;;;;;18.06;46.21;97275.59;4949913;28;20448;-78
2023/06/16 00:08:45;;;;;;;4.70;4.30;;;;;;;18.04;46.45;97270.59;4951379;28;20289;-78
2023/06/16 00:11:12;;;;;;;4.70;4.30;;;;;;;17.92;46.60;97270.28;4946775;28;20444;-78
2023/06/16 00:13:38;;;;;;;5.25;4.18;;;;;;;17.79;47.10;97272.59;4922436;28;20352;-78
2023/06/16 00:16:04;;;;;;;4.53;4.13;;;;;;;17.76;46.95;97272.38;4949298;28;20467;-78
2023/06/16 00:18:29;;;;;;;6.28;4.20;;;;;;;17.72;47.63;97274.81;4936610;28;20184;-77
2023/06/16 00:20:57;;;;;;;5.35;4.10;;;;;;;17.73;47.60;97279.00;4946658;28;20614;-78
2023/06/16 00:23:23;;;;;;;5.07;4.68;;;;;;;17.67;47.81;97271.50;4954456;28;20263;-77
2023/06/16 00:25:48;;;;;;;4.88;4.35;;;;;;;17.64;47.06;97277.31;4940507;28;20464;-78
2023/06/16 00:28:14;;;;;;;4.80;4.07;;;;;;;17.58;47.48;97277.41;4942251;28;20281;-78
2023/06/16 00:30:40;;;;;;;5.82;4.20;;;;;;;17.57;47.43;97281.09;4951087;28;20207;-78
2023/06/16 00:33:05;;;;;;;4.55;4.15;;;;;;;17.54;47.68;97273.75;4939166;28;20272;-78
2023/06/16 00:35:31;;;;;;;5.65;4.45;;;;;;;17.54;47.56;97271.13;4943910;28;20326;-78
2023/06/16 00:37:57;;;;;;;5.03;4.40;;;;;;;17.52;47.49;97273.28;4937348;28;20189;-78
2023/06/16 00:40:22;;;;;;;5.93;4.40;;;;;;;17.47;47.92;97262.81;4946230;28;20393;-78
2023/06/16 00:42:47;;;;;;;4.85;4.43;;;;;;;17.47;47.29;97267.31;4959232;28;20302;-77
2023/06/16 00:45:13;;;;;;;5.07;4.57;;;;;;;17.45;48.06;97259.69;4952581;28;20164;-78
2023/06/16 00:47:38;;;;;;;4.53;4.13;;;;;;;17.44;47.61;97259.97;4931467;28;20164;-78
2023/06/16 00:50:04;;;;;;;4.43;4.00;;;;;;;17.41;47.49;97259.50;4957230;28;20247;-78
2023/06/16 00:52:35;;;;;;;5.43;4.28;;;;;;;17.40;47.66;97257.91;4945662;28;20263;-78
2023/06/16 00:55:01;;;;;;;4.78;4.38;;;;;;;17.38;48.05;97264.53;4929720;28;20254;-78
2023/06/16 00:57:30;;;;;;;5.22;4.60;;;;;;;17.34;47.05;97259.06;4920616;28;20188;-77
2023/06/16 00:59:55;;;;;;;5.35;4.30;;;;;;;17.35;47.61;97262.47;4940046;28;20180;-78
2023/06/16 01:02:21;;;;;;;4.93;4.32;;;;;;;17.34;48.00;97266.16;4937739;28;20358;-77
2023/06/16 01:04:48;;;;;;;7.55;4.55;;;;;;;17.36;47.88;97267.47;4957111;28;20398;-78
2023/06/16 01:07:28;;;;;;;5.57;4.40;;;;;;;17.38;47.77;97260.06;4922947;28;20536;-78
2023/06/16 01:10:10;;;;;;;5.13;4.57;;;;;;;17.41;47.50;97259.50;4913920;28;20469;-78
2023/06/16 01:12:41;;;;;;;5.15;4.40;;;;;;;17.31;47.83;97270.16;4914637;28;20387;-77
2023/06/16 01:15:14;;;;;;;4.93;4.50;;;;;;;17.37;47.82;97269.00;4938420;28;20474;-78
2023/06/16 01:17:44;;;;;;;4.82;4.30;;;;;;;17.23;47.76;97261.06;4950416;28;20123;-78
2023/06/16 01:20:21;;;;;;;4.53;3.75;;;;;;;17.32;47.88;97265.69;4957290;28;20172;-78
2023/06/16 01:22:56;;;;;;;4.80;4.38;;;;;;;17.29;48.25;97267.03;4965937;28;20168;-78
2023/06/16 01:25:24;;;;;;;4.65;4.20;;;;;;;17.17;48.32;97272.72;4958480;28;20219;-78
2023/06/16 01:27:57;;;;;;;5.10;4.63;;;;;;;17.21;48.14;97263.19;4949532;28;20359;-78
2023/06/16 01:30:24;;;;;;;32.42;5.85;;;;;;;17.13;48.17;97273.56;4956289;28;20342;-78
2023/06/16 01:32:54;;;;;;;4.88;4.47;;;;;;;17.14;47.98;97269.88;4949176;28;20161;-77
2023/06/16 01:35:21;;;;;;;4.75;4.30;;;;;;;17.09;48.62;97269.97;4947292;28;20033;-78
2023/06/16 01:37:47;;;;;;;5.63;4.72;;;;;;;17.06;48.39;97266.03;4932011;28;20346;-78
2023/06/16 01:40:13;;;;;;;6.72;4.90;;;;;;;16.97;48.23;97263.25;4955894;28;20277;-78
2023/06/16 01:42:39;;;;;;;5.45;4.40;;;;;;;16.93;48.56;97266.72;4940486;28;20703;-78
2023/06/16 01:45:05;;;;;;;5.00;4.40;;;;;;;16.88;48.44;97261.53;4957688;28;20144;-77
2023/06/16 01:47:31;;;;;;;4.63;4.10;;;;;;;16.88;48.52;97256.28;4930818;28;20231;-78
2023/06/16 01:49:57;;;;;;;4.85;4.35;;;;;;;16.90;48.16;97260.19;4938152;28;20215;-77
2023/06/16 01:52:22;;;;;;;5.28;4.60;;;;;;;16.88;48.43;97256.28;4924401;28;20262;-78
2023/06/16 01:54:48;;;;;;;4.55;4.15;;;;;;;16.84;48.62;97258.69;4947298;28;20188;-77
2023/06/16 01:57:13;;;;;;;5.05;4.30;;;;;;;16.82;48.59;97258.16;4950131;28;20204;-78
2023/06/16 01:59:39;;;;;;;5.68;4.47;;;;;;;16.76;48.92;97259.28;4923417;28;20349;-78
2023/06/16 02:02:12;;;;;;;5.15;4.20;;;;;;;16.71;48.84;97259.34;4917926;28;20346;-78
2023/06/16 02:04:40;;;;;;;5.28;4.28;;;;;;;16.73;48.92;97262.50;4949449;28;20503;-79
2023/06/16 02:07:12;;;;;;;4.50;4.10;;;;;;;16.77;48.75;97261.63;4951100;28;20447;-78
2023/06/16 02:09:41;;;;;;;4.47;4.07;;;;;;;16.70;49.18;97260.41;4958879;28;20513;-78
2023/06/16 02:12:11;;;;;;;4.97;4.10;;;;;;;16.66;48.88;97263.59;4947176;28;20661;-78
2023/06/16 02:14:37;;;;;;;4.07;3.72;;;;;;;16.62;49.29;97261.81;4948809;28;20409;-78
2023/06/16 02:17:07;;;;;;;5.43;4.45;;;;;;;16.59;49.71;97267.66;4945652;28;20032;-78
2023/06/16 02:19:33;;;;;;;5.43;4.88;;;;;;;16.50;49.65;97267.47;4942403;28;20201;-78
2023/06/16 02:22:00;;;;;;;5.45;4.70;;;;;;;16.42;49.11;97262.84;4935535;28;20424;-78
2023/06/16 02:24:26;;;;;;;6.63;5.10;;;;;;;16.39;49.97;97263.41;4951470;28;20381;-78
2023/06/16 02:26:52;;;;;;;6.97;4.65;;;;;;;16.32;49.73;97268.22;4931550;28;20372;-78
2023/06/16 02:29:17;;;;;;;4.97;4.47;;;;;;;16.31;49.15;97272.66;4937588;28;20428;-78
2023/06/16 02:31:50;;;;;;;5.47;4.97;;;;;;;16.37;49.29;97268.16;4921535;28;20890;-78
2023/06/16 02:34:16;;;;;;;4.68;4.22;;;;;;;16.21;49.40;97267.50;4954255;28;20486;-78
2023/06/16 02:36:41;;;;;;;5.38;4.53;;;;;;;16.12;50.04;97259.44;4926475;28;20601;-78
2023/06/16 02:39:07;;;;;;;4.97;4.10;;;;;;;16.00;49.83;97270.34;4951681;28;20357;-77
2023/06/16 02:41:33;;;;;;;5.32;4.75;;;;;;;16.00;50.45;97274.81;4915463;28;20359;-77
2023/06/16 02:43:59;;;;;;;5.65;4.82;;;;;;;16.00;50.37;97270.34;4959801;28;20145;-78
2023/06/16 02:46:24;;;;;;;5.20;4.65;;;;;;;16.03;49.78;97271.63;4944069;28;20352;-79
2023/06/16 02:48:50;;;;;;;6.25;5.10;;;;;;;15.99;49.71;97273.22;4953668;28;20385;-78
2023/06/16 02:51:16;;;;;;;5.20;4.70;;;;;;;15.81;50.48;97275.50;4938588;28;20328;-78
2023/06/16 02:53:45;;;;;;;7.32;4.97;;;;;;;15.90;49.86;97265.16;4954340;28;20187;-78
2023/06/16 02:56:11;;;;;;;5.78;5.00;;;;;;;15.96;49.97;97263.31;4922965;28;20270;-78
2023/06/16 02:58:38;;;;;;;6.28;4.60;;;;;;;16.03;49.97;97274.25;4942518;28;20410;-78
2023/06/16 03:01:04;;;;;;;5.68;4.40;;;;;;;16.00;50.19;97278.22;4941726;28;20032;-78
2023/06/16 03:03:31;;;;;;;5.78;4.53;;;;;;;15.98;49.85;97271.69;4943493;28;20400;-78
2023/06/16 03:06:00;;;;;;;5.10;4.30;;;;;;;16.02;49.59;97267.44;4947940;28;20354;-78
2023/06/16 03:08:26;;;;;;;5.90;4.90;;;;;;;15.91;50.44;97267.53;4948688;28;20152;-80
2023/06/16 03:10:52;;;;;;;6.57;4.50;;;;;;;15.91;50.28;97267.53;4926676;28;20350;-78
2023/06/16 03:13:18;;;;;;;6.03;4.85;;;;;;;15.94;50.61;97276.69;4942063;28;20517;-80
2023/06/16 03:15:44;;;;;;;5.75;5.25;;;;;;;15.96;50.26;97271.19;4945789;28;20164;-80
2023/06/16 03:18:10;;;;;;;5.05;4.55;;;;;;;15.93;50.31;97277.75;4931539;28;20400;-80
2023/06/16 03:20:36;;;;;;;5.28;4.38;;;;;;;16.00;49.50;97270.34;4940265;28;20423;-78
2023/06/16 03:23:02;;;;;;;5.13;4.63;;;;;;;15.98;49.54;97271.69;4964156;28;20536;-78
2023/06/16 03:25:30;;;;;;;5.22;4.38;;;;;;;15.97;49.91;97268.28;4949718;28;20202;-78
2023/06/16 03:27:56;;;;;;;6.22;4.28;;;;;;;15.93;50.37;97277.75;4947778;28;20270;-78
2023/06/16 03:30:21;;;;;;;6.63;4.40;;;;;;;15.86;50.08;97269.41;4962454;28;20429;-78
2023/06/16 03:32:47;;;;;;;5.00;4.32;;;;;;;15.85;50.37;97271.28;4948911;28;20140;-79
2023/06/16 03:35:12;;;;;;;5.35;4.70;;;;;;;15.84;50.79;97266.28;4942959;28;20250;-78
2023/06/16 03:37:38;;;;;;;5.57;4.47;;;;;;;15.81;51.59;97270.22;4937334;28;20206;-78
2023/06/16 03:40:07;;;;;;;4.90;4.35;;;;;;;15.83;51.29;97276.00;4937134;28;20422;-78
2023/06/16 03:42:33;;;;;;;4.97;4.47;;;;;;;15.84;51.21;97271.53;4920429;28;20282;-77
2023/06/16 03:44:59;;;;;;;5.72;4.30;;;;;;;15.77;51.56;97265.84;4939669;28;20032;-79
2023/06/16 03:47:25;;;;;;;5.05;4.55;;;;;;;15.78;51.06;97272.63;4945580;28;20382;-78
2023/06/16 03:49:52;;;;;;;6.32;4.50;;;;;;;15.82;50.16;97279.69;4929102;28;20267;-80
2023/06/16 03:52:18;;;;;;;4.78;4.28;;;;;;;15.80;51.26;97271.31;4959532;28;20252;-80
2023/06/16 03:54:43;;;;;;;5.50;4.82;;;;;;;15.80;51.05;97265.25;4938614;28;20401;-80
2023/06/16 03:57:09;;;;;;;5.93;4.72;;;;;;;15.84;50.98;97277.56;4938796;28;20439;-80
2023/06/16 03:59:36;;;;;;;5.07;4.57;;;;;;;15.87;51.63;97276.25;4919136;28;20465;-79
2023/06/16 04:02:07;;;;;;;4.80;4.40;;;;;;;15.89;51.65;97282.00;4963178;28;20164;-79
2023/06/16 04:04:33;;;;;;;5.22;4.63;;;;;;;15.91;50.90;97278.03;4956547;28;20198;-79
2023/06/16 04:07:00;;;;;;;5.63;5.13;;;;;;;15.89;51.13;97280.16;4948723;28;20391;-78
2023/06/16 04:09:26;;;;;;;6.70;5.15;;;;;;;15.80;51.72;97287.06;4930803;28;20300;-77
2023/06/16 04:11:51;;;;;;;5.35;4.82;;;;;;;16.07;51.50;97291.03;4943046;28;20534;-78
2023/06/16 04:14:17;;;;;;;4.65;4.25;;;;;;;16.15;51.26;97287.81;4948148;28;20237;-78
2023/06/16 04:16:42;;;;;;;5.88;4.63;;;;;;;16.20;51.86;97285.13;4950214;28;20668;-78
2023/06/16 04:19:09;;;;;;;4.80;4.40;;;;;;;16.27;51.01;97288.19;4953698;28;20172;-78
2023/06/16 04:21:36;;;;;;;4.70;4.30;;;;;;;16.33;51.07;97278.44;4953260;28;20273;-79
2023/06/16 04:24:02;;;;;;;6.70;4.82;;;;;;;16.38;51.23;97278.38;4928244;28;20431;-78
2023/06/16 04:26:28;;;;;;;4.68;4.28;;;;;;;16.39;51.35;97282.56;4938276;28;20297;-78
2023/06/16 04:28:55;;;;;;;4.75;4.35;;;;;;;16.48;50.64;97288.78;4959338;28;20308;-78
2023/06/16 04:31:29;;;;;;;4.88;4.45;;;;;;;16.67;50.52;97278.31;4958231;28;20396;-78
2023/06/16 04:33:56;;;;;;;5.20;4.70;;;;;;;16.68;51.13;97289.63;4950294;28;20397;-78
2023/06/16 04:36:22;;;;;;;5.70;4.68;;;;;;;16.77;50.76;97287.16;4939789;28;20194;-78
2023/06/16 04:38:48;;;;;;;5.35;4.47;;;;;;;16.80;51.29;97286.59;4940455;28;20168;-78
2023/06/16 04:41:13;;;;;;;4.40;3.97;;;;;;;16.89;50.91;97281.50;4937385;28;20364;-78
2023/06/16 04:43:39;;;;;;;4.70;4.30;;;;;;;16.97;50.63;97281.66;4950008;28;20397;-78
2023/06/16 04:46:04;;;;;;;5.15;4.40;;;;;;;17.05;50.39;97285.53;4957778;28;20376;-78
2023/06/16 04:48:30;;;;;;;5.20;4.22;;;;;;;17.15;49.58;97289.84;4944959;28;20532;-78
2023/06/16 04:50:57;;;;;;;4.88;4.38;;;;;;;17.26;49.60;97287.88;4934226;28;20439;-78
2023/06/16 04:53:23;;;;;;;4.88;4.43;;;;;;;17.33;49.56;97286.44;4949202;28;20182;-79
2023/06/16 04:55:48;;;;;;;5.25;4.75;;;;;;;17.43;49.62;97285.53;4946086;28;20249;-78
2023/06/16 04:58:14;;;;;;;5.07;4.38;;;;;;;17.52;49.88;97285.66;4953236;28;20585;-77
2023/06/16 05:00:40;;;;;;;5.82;4.60;;;;;;;17.58;50.33;97284.50;4927625;28;20602;-78
2023/06/16 05:03:05;;;;;;;4.55;4.15;;;;;;;17.71;50.45;97283.00;4950138;28;20331;-78
2023/06/16 05:05:32;;;;;;;5.10;4.45;;;;;;;17.84;50.75;97286.72;4926363;28;20087;-78
2023/06/16 05:07:58;;;;;;;4.90;4.40;;;;;;;17.89;49.54;97290.09;4942175;28;20293;-78
2023/06/16 05:10:23;;;;;;;4.82;4.43;;;;;;;17.97;48.59;97286.00;4953767;28;20406;-79
2023/06/16 05:12:49;;;;;;;5.13;4.40;;;;;;;18.09;47.95;97288.97;4940310;28;20329;-78
2023/06/16 05:15:15;;;;;;;5.25;4.40;;;;;;;18.18;47.65;97286.47;4926844;28;20394;-79
2023/06/16 05:17:40;;;;;;;5.35;4.60;;;;;;;18.23;47.53;97282.94;4931917;28;20477;-78
2023/06/16 05:20:06;;;;;;;5.28;4.78;;;;;;;18.32;46.73;97287.25;4943536;28;20045;-78
2023/06/16 05:22:32;;;;;;;4.75;4.18;;;;;;;18.39;46.26;97281.59;4926231;28;20044;-78
2023/06/16 05:24:57;;;;;;;4.72;4.28;;;;;;;18.51;46.11;97289.03;4959383;28;20478;-78
2023/06/16 05:27:24;;;;;;;5.82;4.60;;;;;;;18.62;46.30;97287.75;4953334;28;20405;-78
2023/06/16 05:29:54;;;;;;;4.70;4.30;;;;;;;18.81;46.52;97278.94;4934390;28;20347;-78
2023/06/16 05:32:21;;;;;;;5.05;4.43;;;;;;;18.89;45.97;97289.63;4961196;28;20403;-78
2023/06/16 05:34:51;;;;;;;5.15;4.65;;;;;;;19.03;45.72;97286.19;4950156;28;20339;-78
2023/06/16 05:37:18;;;;;;;5.75;4.50;;;;;;;19.05;45.88;97284.78;4927753;28;20237;-78
2023/06/16 05:39:44;;;;;;;4.97;4.38;;;;;;;19.12;45.57;97292.31;4924595;28;20194;-79
2023/06/16 05:42:16;;;;;;;5.15;4.10;;;;;;;19.22;45.09;97292.09;4927723;28;20097;-79
2023/06/16 05:44:42;;;;;;;5.18;4.57;;;;;;;19.32;45.72;97290.31;4935172;28;20317;-79
2023/06/16 05:47:08;;;;;;;4.40;3.92;;;;;;;19.48;44.79;97290.75;4942183;28;20352;-79
2023/06/16 05:49:33;;;;;;;4.65;4.18;;;;;;;19.60;44.51;97283.88;4957650;28;20223;-79
2023/06/16 05:52:03;;;;;;;4.95;4.43;;;;;;;19.72;44.42;97287.81;4943274;28;20177;-79
2023/06/16 05:54:29;;;;;;;4.45;4.03;;;;;;;19.80;44.16;97293.19;4929336;28;20180;-79
2023/06/16 05:56:58;;;;;;;4.70;4.25;;;;;;;19.97;43.83;97283.81;4943382;28;20370;-79
2023/06/16 05:59:25;;;;;;;4.35;3.95;;;;;;;20.06;43.85;97291.78;4964661;28;20298;-79
2023/06/16 06:01:50;;;;;;;4.18;3.85;;;;;;;20.19;43.10;97293.56;4931570;28;20037;-78
2023/06/16 06:04:20;;;;;;;4.55;4.15;;;;;;;20.42;43.37;97298.78;4947557;28;20126;-79
2023/06/16 06:06:45;;;;;;;4.80;4.30;;;;;;;20.52;43.03;97295.88;4941457;28;20446;-79
2023/06/16 06:09:11;;;;;;;5.18;4.35;;;;;;;20.82;42.58;97296.13;4944353;28;20357;-79
2023/06/16 06:11:36;;;;;;;4.85;4.35;;;;;;;21.00;42.88;97304.91;4951135;28;20334;-79
2023/06/16 06:14:02;;;;;;;5.07;4.57;;;;;;;21.19;43.42;97309.91;4958354;28;20041;-78
2023/06/16 06:16:28;;;;;;;5.68;5.05;;;;;;;21.40;44.32;97299.47;4942957;28;20025;-79
2023/06/16 06:18:53;;;;;;;6.10;5.50;;;;;;;21.58;44.44;97316.19;4956447;28;20492;-80
2023/06/16 06:21:19;;;;;;;5.80;5.20;;;;;;;21.82;44.55;97324.44;4946505;28;20510;-79
2023/06/16 06:23:44;;;;;;;5.60;5.10;;;;;;;22.05;43.18;97329.53;4959245;28;20564;-78
2023/06/16 06:26:10;;;;;;;7.10;5.03;;;;;;;22.18;42.61;97315.31;4947847;28;20377;-78
2023/06/16 06:28:35;;;;;;;5.18;4.68;;;;;;;22.40;40.99;97322.28;4944546;28;20387;-78
2023/06/16 06:31:01;;;;;;;5.22;4.68;;;;;;;22.79;40.69;97322.28;4947176;28;20293;-79
2023/06/16 06:33:27;;;;;;;6.38;5.30;;;;;;;22.98;40.55;97319.22;4943996;28;20637;-78
2023/06/16 06:35:53;;;;;;;5.18;4.50;;;;;;;23.23;39.59;97320.16;4954327;28;20113;-78
2023/06/16 06:38:18;;;;;;;5.32;4.80;;;;;;;23.46;39.92;97333.13;4956112;28;20343;-79
2023/06/16 06:40:44;;;;;;;5.47;4.93;;;;;;;23.59;39.97;97331.31;4940402;28;20397;-79
2023/06/16 06:43:09;;;;;;;5.70;5.10;;;;;;;23.66;39.81;97337.66;4939970;28;20300;-78
2023/06/16 06:45:35;;;;;;;5.03;4.55;;;;;;;23.95;39.24;97332.59;4954195;28;20441;-77
2023/06/16 06:48:00;;;;;;;5.10;4.60;;;;;;;24.27;38.50;97333.69;4957162;28;20183;-79
2023/06/16 06:50:26;;;;;;;4.97;4.47;;;;;;;24.27;36.55;97328.34;4939631;28;20290;-78
2023/06/16 06:52:51;;;;;;;5.78;4.20;;;;;;;24.27;35.21;97337.09;4951394;28;20517;-79
2023/06/16 06:55:18;;;;;;;4.43;3.60;;;;;;;24.58;33.14;97335.06;4943018;28;20083;-80
2023/06/16 06:57:44;;;;;;;5.43;4.25;;;;;;;24.49;33.11;97341.25;4922231;28;20211;-79
2023/06/16 07:00:10;;;;;;;4.75;4.05;;;;;;;24.57;34.26;97338.84;4948489;28;20280;-79
2023/06/16 07:02:39;;;;;;;4.22;3.80;;;;;;;24.73;33.06;97342.41;4955576;28;20157;-79
2023/06/16 07:05:05;;;;;;;5.95;3.88;;;;;;;24.78;32.42;97354.69;4950818;28;20506;-78
2023/06/16 07:07:30;;;;;;;5.55;4.78;;;;;;;24.99;32.86;97344.72;4948430;28;20456;-79
2023/06/16 07:09:56;;;;;;;4.63;4.22;;;;;;;25.16;32.02;97358.91;4923206;28;20615;-79
2023/06/16 07:12:21;;;;;;;4.40;4.00;;;;;;;25.52;32.00;97350.09;4921020;28;20196;-79
2023/06/16 07:14:47;;;;;;;4.97;4.13;;;;;;;25.49;30.84;97358.75;4936975;28;20512;-78
2023/06/16 07:17:13;;;;;;;3.95;3.47;;;;;;;25.84;30.46;97349.41;4951292;28;20343;-79
2023/06/16 07:19:39;;;;;;;6.30;4.53;;;;;;;25.72;30.90;97360.91;4931987;28;20428;-79
2023/06/16 07:22:05;;;;;;;4.57;4.18;;;;;;;25.90;30.74;97356.81;4927325;28;20199;-78
2023/06/16 07:24:31;;;;;;;4.43;4.03;;;;;;;26.10;30.78;97357.00;4930889;28;20480;-79
2023/06/16 07:26:56;;;;;;;5.10;4.60;;;;;;;26.11;30.69;97355.88;4959024;28;20393;-79
2023/06/16 07:29:22;;;;;;;5.70;4.53;;;;;;;26.35;31.93;97354.94;4947368;28;20094;-79
2023/06/16 07:31:47;;;;;;;4.43;4.03;;;;;;;26.82;31.26;97364.88;4954374;28;20321;-79
2023/06/16 07:34:13;;;;;;;5.00;4.60;;;;;;;26.78;30.37;97357.91;4949918;28;20352;-79
2023/06/16 07:36:39;;;;;;;5.22;4.72;;;;;;;26.80;30.72;97358.31;4949468;28;20369;-79
2023/06/16 07:39:04;;;;;;;5.72;4.47;;;;;;;26.80;30.87;97366.34;4950716;28;20059;-79
2023/06/16 07:41:32;;;;;;;4.63;4.22;;;;;;;27.01;29.65;97360.72;4937838;28;20101;-79
2023/06/16 07:43:57;;;;;;;4.45;4.03;;;;;;;27.32;29.59;97359.91;4948987;28;20041;-79
2023/06/16 07:46:23;;;;;;;5.47;4.32;;;;;;;27.54;28.11;97354.97;4953916;28;20374;-80
2023/06/16 07:48:48;;;;;;;3.88;3.58;;;;;;;27.75;28.07;97350.06;4921235;28;20544;-80
2023/06/16 07:51:15;;;;;;;4.85;4.20;;;;;;;27.87;28.32;97356.41;4916125;28;20513;-79
2023/06/16 07:53:42;;;;;;;4.40;4.00;;;;;;;27.97;28.18;97350.50;4948131;28;20353;-79
2023/06/16 07:56:11;;;;;;;8.98;4.70;;;;;;;27.72;28.02;97350.00;4920828;28;20288;-79
2023/06/16 07:58:38;;;;;;;4.70;4.18;;;;;;;27.86;27.04;97354.84;4952318;28;21262;-79
2023/06/16 08:01:04;;;;;;;5.85;4.50;;;;;;;28.01;27.29;97345.97;4950512;28;20393;-79
2023/06/16 08:03:30;;;;;;;4.78;3.83;;;;;;;28.26;26.22;97359.00;4948053;28;20281;-80
2023/06/16 08:05:57;;;;;;;5.25;4.45;;;;;;;28.52;26.59;97348.38;4944654;28;20317;-80
2023/06/16 08:08:27;;;;;;;6.78;4.65;;;;;;;28.46;25.44;97344.44;4950222;28;20108;-79
2023/06/16 08:10:56;;;;;;;4.82;3.55;;;;;;;28.71;24.34;97326.09;4919795;28;20122;-80
2023/06/16 08:13:22;;;;;;;4.20;3.90;;;;;;;28.65;25.21;97332.13;4947019;28;20262;-82
2023/06/16 08:15:48;;;;;;;3.95;3.10;;;;;;;28.92;24.43;97352.44;4936766;28;20254;-80
2023/06/16 08:18:13;;;;;;;3.72;3.33;;;;;;;29.02;24.25;97350.28;4951669;28;20075;-79
2023/06/16 08:20:39;;;;;;;3.90;3.60;;;;;;;29.40;21.77;97345.84;4919169;28;20171;-81
2023/06/16 08:23:04;;;;;;;4.20;3.80;;;;;;;29.24;22.85;97346.03;4938982;28;20287;-79
2023/06/16 08:25:30;;;;;;;5.10;4.60;;;;;;;29.50;22.90;97350.56;4940484;28;20075;-80
2023/06/16 08:27:55;;;;;;;6.55;4.13;;;;;;;29.92;21.47;97360.28;4929521;28;20172;-80
2023/06/16 08:30:21;;;;;;;4.38;3.97;;;;;;;29.97;22.20;97351.88;4941253;28;20076;-79
2023/06/16 08:32:53;;;;;;;4.95;4.55;;;;;;;30.16;22.20;97350.13;4921211;28;20355;-80
2023/06/16 08:35:18;;;;;;;5.80;4.10;;;;;;;30.10;22.76;97348.94;4956382;28;20261;-80
2023/06/16 08:37:44;;;;;;;4.20;3.80;;;;;;;30.29;20.85;97346.03;4936254;28;20285;-82
2023/06/16 08:40:11;;;;;;;4.55;4.15;;;;;;;30.28;21.59;97344.50;4943351;28;20595;-82
2023/06/16 08:42:37;;;;;;;4.00;3.70;;;;;;;29.92;22.79;97344.16;4957171;28;20173;-80
2023/06/16 08:45:04;;;;;;;4.32;3.92;;;;;;;30.05;22.28;97344.66;4937060;28;20215;-81
2023/06/16 08:47:30;;;;;;;4.25;3.85;;;;;;;29.89;22.47;97344.88;4926451;28;20292;-80
2023/06/16 08:49:56;;;;;;;4.43;4.00;;;;;;;30.17;21.61;97347.06;4954799;28;20278;-82
2023/06/16 08:52:24;;;;;;;4.78;4.10;;;;;;;30.32;21.04;97350.66;4955892;28;20509;-80
2023/06/16 08:54:56;;;;;;;4.90;3.83;;;;;;;30.28;21.72;97347.19;4940640;28;20263;-80
2023/06/16 08:57:23;;;;;;;4.47;4.03;;;;;;;30.49;20.11;97341.25;4951135;28;20404;-81
2023/06/16 08:59:51;;;;;;;4.35;3.95;;;;;;;30.35;20.58;97339.22;4959003;28;20332;-80
2023/06/16 09:02:17;;;;;;;4.47;3.63;;;;;;;30.37;20.89;97342.31;4960450;28;20264;-80
2023/06/16 09:04:44;;;;;;;4.95;3.72;;;;;;;30.37;21.18;97342.31;4926003;28;20271;-83
2023/06/16 09:07:11;;;;;;;4.57;3.80;;;;;;;30.21;20.65;97341.72;4932633;28;20313;-80
2023/06/16 09:09:37;;;;;;;4.20;3.90;;;;;;;30.12;20.91;97341.28;4948007;28;20383;-80
2023/06/16 09:12:13;;;;;;;4.57;4.25;;;;;;;30.31;21.79;97343.75;4926977;28;20195;-80
2023/06/16 09:14:39;;;;;;;3.38;3.15;;;;;;;30.76;20.71;97341.84;4925733;28;20240;-80
2023/06/16 09:17:07;;;;;;;4.60;3.85;;;;;;;30.63;21.81;97337.91;4951189;28;20359;-80
2023/06/16 09:19:36;;;;;;;4.20;3.80;;;;;;;31.00;20.77;97342.41;4945145;28;20025;-81
2023/06/16 09:22:05;;;;;;;4.38;4.07;;;;;;;31.13;21.50;97345.53;4936246;28;20033;-80
2023/06/16 09:24:30;;;;;;;4.82;3.85;;;;;;;31.11;20.96;97334.38;4928632;28;20173;-82
2023/06/16 09:26:59;;;;;;;3.97;3.60;;;;;;;31.28;19.93;97335.63;4935376;28;20257;-81
2023/06/16 09:29:26;;;;;;;4.75;4.35;;;;;;;31.42;20.07;97334.91;4923363;28;20395;-80
2023/06/16 09:31:52;;;;;;;4.20;3.80;;;;;;;30.99;20.39;97330.84;4945052;28;20165;-79
2023/06/16 09:34:18;;;;;;;4.38;3.97;;;;;;;31.10;20.08;97338.22;4935216;28;20371;-81
2023/06/16 09:36:44;;;;;;;4.68;4.28;;;;;;;30.78;21.61;97334.16;4920191;28;20247;-80
2023/06/16 09:39:26;;;;;;;3.85;3.55;;;;;;;31.25;20.51;97336.38;4946507;28;20361;-81
2023/06/16 09:41:53;;;;;;;4.80;4.20;;;;;;;31.47;20.36;97329.16;4933387;28;20279;-81
2023/06/16 09:44:21;;;;;;;4.68;4.25;;;;;;;31.57;19.36;97322.31;4935558;28;20270;-80
2023/06/16 09:46:49;;;;;;;4.30;3.90;;;;;;;30.89;20.27;97334.22;4918729;28;20212;-81
2023/06/16 09:49:25;;;;;;;4.07;3.75;;;;;;;31.27;20.93;97323.31;4921544;28;20310;-79
2023/06/16 09:51:58;;;;;;;5.82;4.65;;;;;;;30.96;21.69;97322.75;4934704;28;20180;-80
2023/06/16 09:54:25;;;;;;;5.25;4.10;;;;;;;31.42;21.18;97313.38;4949492;28;20211;-80
2023/06/16 09:56:54;;;;;;;4.47;4.05;;;;;;;31.47;20.80;97313.78;4937420;28;20354;-81
2023/06/16 09:59:20;;;;;;;4.47;4.07;;;;;;;32.09;19.87;97315.50;4938874;28;20492;-81
2023/06/16 10:01:47;;;;;;;4.50;4.10;;;;;;;31.75;21.08;97317.72;4944930;28;20229;-80
2023/06/16 10:04:15;;;;;;;4.90;4.50;;;;;;;31.92;20.64;97313.53;4945695;28;20203;-80
2023/06/16 10:06:48;;;;;;;5.53;4.20;;;;;;;31.61;19.59;97320.38;4959341;28;20224;-82
2023/06/16 10:09:17;;;;;;;5.30;4.80;;;;;;;31.05;20.15;97317.84;4948801;28;20238;-82
2023/06/16 10:11:45;;;;;;;4.97;4.45;;;;;;;30.32;20.63;97318.44;4918522;28;20561;-81
2023/06/16 10:14:11;;;;;;;4.82;4.43;;;;;;;29.81;21.61;97321.78;4959388;28;20717;-81
2023/06/16 10:16:37;;;;;;;4.60;4.15;;;;;;;29.75;21.09;97321.34;4939300;28;20034;-80
2023/06/16 10:19:05;;;;;;;4.40;3.97;;;;;;;29.51;21.80;97314.56;4923614;28;20196;-80
2023/06/16 10:21:31;;;;;;;4.57;4.03;;;;;;;30.12;22.02;97312.50;4942114;28;20099;-81
2023/06/16 10:23:57;;;;;;;4.53;4.13;;;;;;;30.78;21.53;97317.25;4943474;28;20025;-82
2023/06/16 10:26:22;;;;;;;5.28;4.88;;;;;;;31.40;20.85;97313.00;4948910;28;20234;-80
2023/06/16 10:28:48;;;;;;;4.32;3.70;;;;;;;31.67;21.04;97316.16;4929213;28;20040;-80
2023/06/16 10:31:18;;;;;;;5.85;4.53;;;;;;;31.99;20.73;97305.44;4933305;28;20464;-80
2023/06/16 10:33:55;;;;;;;5.13;4.20;;;;;;;31.81;19.65;97316.22;4944791;28;20290;-80
2023/06/16 10:36:24;;;;;;;5.03;3.85;;;;;;;31.87;20.44;97311.22;4937621;28;20391;-80
2023/06/16 10:38:59;;;;;;;4.40;4.00;;;;;;;31.86;20.21;97305.06;4938615;28;20390;-80
2023/06/16 10:41:29;;;;;;;5.10;4.53;;;;;;;30.95;19.79;97315.88;4925159;28;20203;-79
2023/06/16 10:43:55;;;;;;;4.75;4.35;;;;;;;30.23;20.74;97315.28;4950305;28;20352;-81
2023/06/16 10:46:21;;;;;;;5.28;4.68;;;;;;;29.87;21.24;97313.03;4923511;28;20395;-81
2023/06/16 10:49:11;;;;;;;4.32;3.95;;;;;;;30.16;21.22;97310.63;4953831;28;20644;-81
2023/06/16 10:51:44;;;;;;;4.68;4.28;;;;;;;29.91;22.12;97307.72;4930751;28;20514;-80
2023/06/16 10:54:10;;;;;;;4.90;4.22;;;;;;;29.86;21.65;97316.09;4952095;28;20461;-81
2023/06/16 10:57:05;;;;;;;4.28;3.88;;;;;;;29.82;20.44;97317.97;4940611;28;20489;-80
2023/06/16 10:59:50;;;;;;;;;;;;;;;30.24;20.41;97308.75;4926073;28;20039;-80
2023/06/16 11:02:27;;;;;;;4.88;4.20;;;;;;;30.73;22.18;97310.31;4935112;28;20384;-80
2023/06/16 11:05:09;;;;;;;5.18;4.10;;;;;;;31.29;19.81;97308.34;4962378;28;20376;-80
2023/06/16 11:07:39;;;;;;;4.05;3.70;;;;;;;31.39;21.18;97296.06;4950937;28;20188;-80
2023/06/16 11:10:09;;;;;;;4.05;3.70;;;;;;;31.15;20.65;97302.88;4916775;28;20045;-80
2023/06/16 11:12:34;;;;;;;4.43;4.03;;;;;;;31.36;20.00;97297.59;4944576;28;20295;-81
2023/06/16 11:15:00;;;;;;;5.00;4.40;;;;;;;31.54;19.93;97292.28;4924068;28;20233;-80
2023/06/16 11:17:25;;;;;;;4.72;4.22;;;;;;;31.22;20.99;97291.38;4927477;28;20184;-80
2023/06/16 11:19:53;;;;;;;5.10;4.57;;;;;;;30.91;20.20;97294.28;4938155;28;20538;-83
2023/06/16 11:22:36;;;;;;;6.05;4.10;;;;;;;31.24;20.61;97291.78;4940924;28;20160;-81
2023/06/16 11:25:03;;;;;;;4.93;4.45;;;;;;;31.23;19.03;97284.88;4955145;28;20416;-79
2023/06/16 11:27:30;;;;;;;4.20;3.67;;;;;;;31.30;18.81;97285.66;4948597;28;20183;-81
2023/06/16 11:29:57;;;;;;;4.60;4.05;;;;;;;31.26;18.81;97281.44;4916654;28;20407;-80
2023/06/16 11:32:30;;;;;;;5.00;4.53;;;;;;;30.88;19.68;97281.59;4952101;28;20350;-81
2023/06/16 11:34:56;;;;;;;3.97;3.67;;;;;;;30.52;19.89;97286.75;4937384;28;20379;-79